• Join FlightAware (Why Join?)
  • Login
  • US Flag 
10:04AM EST


 

Airport Tracker/Info


-or-


 

Live Flight TrackerFlight Track Log ✈ GGA1 ✈ 11-Apr-2013 ✈ KAHN - KLEX

Flight Track Log - Related Links

Times and Time Zones

All times are in EDT time to prevent confusion due to time zone crossing. See the GGA1 flight status page for this flight to view local times or setup timezone preferences in your user account.

Time Position Orientation Groundspeed Altitude Reporting Facility
EDT Latitude Longitude Course Direction KTS MPH feet Rate Location/Type
01:39PM 33.9833 -83.3667 345° North 154 177 2,600  Level Atlanta TRACON
01:40PM 34.0333 -83.3833 345° North 182 209 4,700 1,800 Climbing Atlanta TRACON
01:41PM 34.0833 -83.4000 345° North 190 219 6,500 1,800 Climbing Atlanta TRACON
01:42PM 34.1333 -83.4167 345° North 191 220 8,400 1,080 Climbing Atlanta TRACON
01:44PM 34.2644 -83.4506 348° North 236 272 10,000 480 Climbing Atlanta Center
01:45PM 34.3378 -83.4728 346° North 266 306 10,000  Level Atlanta Center
01:46PM 34.4172 -83.4975 346° North 266 306 10,000  Level Atlanta Center
01:47PM 34.4944 -83.5169 348° North 271 312 10,000 600 Level Atlanta Center
01:49PM 34.6344 -83.5617 345° North 256 295 11,900 660 Climbing Atlanta Center
01:50PM 34.7075 -83.5814 347° North 255 293 12,100 1,020 Climbing Atlanta Center
01:51PM 34.7786 -83.6039 345° North 265 305 14,000 900 Climbing Atlanta Center
01:52PM 34.8517 -83.6236 348° North 256 295 14,000  Level Atlanta Center
01:53PM 34.9144 -83.6411 347° North 276 318 14,000 -60 Level Atlanta Center
01:54PM 35.0125 -83.6711 346° North 289 333 13,900 -60 Descending Atlanta Center
01:55PM 35.0919 -83.6986 344° North 294 338 13,900 4,020 Level Atlanta Center
01:56PM 35.1628 -83.7211 345° North 294 338 22,000 1,980 Climbing Atlanta Center
01:57PM 35.2192 -83.7361 348° North 251 289 17,900 -1,320 Descending Atlanta Center
01:58PM 35.2797 -83.7539 347° North 221 254 19,400 1,200 Climbing Atlanta Center
01:59PM 35.3403 -83.7714 347° North 221 254 20,400 1,200 Climbing Atlanta Center
02:00PM 35.4072 -83.7892 348° North 228 262 21,900 780 Climbing Atlanta Center
02:01PM 35.4761 -83.8144 343° North 240 276 22,000  Climbing Atlanta Center
02:02PM 35.5533 -83.8369 347° North 265 305 22,000  Level Atlanta Center
02:03PM 35.6367 -83.8600 347° North 286 329 22,000  Level Atlanta Center
02:04PM 35.7203 -83.8853 346° North 298 343 22,000  Level Atlanta Center
02:05PM 35.8017 -83.9108 346° North 298 343 22,000  Level Atlanta Center
02:06PM 35.8850 -83.9361 346° North 298 343 22,000  Level Atlanta Center
02:07PM 35.9686 -83.9644 345° North 298 343 22,000  Level Atlanta Center
02:08PM 36.0542 -83.9872 348° North 298 343 22,000  Level Atlanta Center
02:09PM 36.1397 -84.0156 345° North 298 343 22,000  Level Atlanta Center
02:11PM 36.2858 -84.0572 347° North 309 356 22,000  Level Indianapolis Center
02:12PM 36.3700 -84.0817 347° North 311 358 22,000  Level Indianapolis Center
02:13PM 36.4536 -84.1069 346° North 310 357 22,000  Level Indianapolis Center
02:14PM 36.5344 -84.1314 346° North 312 359 22,000  Level Indianapolis Center
02:15PM 36.6328 -84.1636 345° North 312 359 22,000 -300 Level Indianapolis Center
02:16PM 36.7186 -84.1911 346° North 316 364 21,400 -840 Descending Indianapolis Center
02:17PM 36.8086 -84.2192 346° North 329 379 20,300 -1,140 Descending Indianapolis Center
02:18PM 36.9044 -84.2497 346° North 348 400 19,100 -1,200 Descending Indianapolis Center
02:19PM 36.9967 -84.2753 348° North 340 391 17,900 -1,260 Descending Indianapolis Center
02:20PM 37.0889 -84.3036 346° North 339 390 16,600 -1,320 Descending Indianapolis Center
02:21PM 37.1769 -84.3347 344° North 332 382 15,200 -1,500 Descending Indianapolis Center
02:22PM 37.2819 -84.3697 345° North 334 384 13,500 -1,680 Descending Indianapolis Center
02:23PM 37.3717 -84.3961 347° North 331 381 11,800 -1,200 Descending Indianapolis Center
02:24PM 37.4547 -84.4225 346° North 315 362 11,100 -360 Descending Indianapolis Center
02:25PM 37.5253 -84.4444 346° North 271 312 11,100 -300 Level Indianapolis Center
02:26PM 37.5975 -84.4700 344° North 268 308 10,500 -1,020 Descending Indianapolis Center
02:27PM 37.6814 -84.4947 347° North 298 343 9,000 -1,440 Descending Indianapolis Center
02:28PM 37.7658 -84.5192 347° North 307 353 7,600 -1,500 Descending Indianapolis Center
02:29PM 37.8647 -84.5431 349° North 308 354 5,900 -1,620 Descending Indianapolis Center
02:30PM 37.9392 -84.5464 358° North 291 335 4,300 -1,200 Descending Indianapolis Center
02:31PM 38.0003 -84.5289 13° North 256 295 3,500 -840 Descending Indianapolis Center
02:32PM 38.0481 -84.5464 344° North 209 241 2,600 -900 Descending Indianapolis Center
02:34PM 38.0333 -84.6000 270° West  Level FlightAware Approximate
02:41PM 38.0368 -84.6086 270° West  Level Estimated
02:42PM 38.0368 -84.6086 270° West  Level Estimated